Latest Weather Observations for Nhill Aerodrome

IDV60801

Issued at 10:52 pm EST Sunday 21 July 2019 (issued every 10 minutes, with the page automatically refreshed every 10 minutes)

About weather observations | Map of weather stations | Latest weather observations for VIC | Other Formats
Station Details ID: 078015 Name: NHILL AERODROME Lat: -36.31 Lon: 141.65 Height: 138.9 m
Data from the previous 72 hours. | See also: Recent months at Nhill Aerodrome
Date/Time
EST
Temp
°C
App
Temp
°C
Dew
Point
°C
Rel
Hum
%
Delta-T
°C
Wind Press
QNH
hPa
Press
MSL
hPa
Rain since
9am
mm
Dir  Spd
km/h
Gust
km/h
Spd
kts
Gust
kts
21/10:30pm 8.3 5.0 4.5 77 1.7 NNW 11 17 6 9 1014.4 1014.6 0.0
21/10:00pm 8.4 5.1 4.4 76 1.8 N 11 17 6 9 1014.6 1014.8 0.0
21/09:30pm 8.3 4.9 4.1 75 1.8 N 11 15 6 8 1014.7 1014.9 0.0
21/09:00pm 8.8 5.5 4.6 75 1.9 N 11 15 6 8 1014.8 1015.0 0.0
21/08:30pm 8.9 5.6 4.7 75 1.9 NNW 11 13 6 7 1014.8 1015.0 0.0
21/08:00pm 9.1 6.2 4.7 74 2.0 N 9 11 5 6 1014.6 1014.8 0.0
21/07:30pm 9.6 6.0 5.0 73 2.1 NNW 13 15 7 8 1014.4 1014.6 0.0
21/07:00pm 9.3 6.4 4.9 74 2.0 NNW 9 11 5 6 1014.0 1014.2 0.0
21/06:30pm 10.1 7.3 5.1 71 2.3 NNW 9 13 5 7 1013.6 1013.8 0.0
21/06:00pm 10.8 7.6 5.3 69 2.5 NW 11 13 6 7 1013.3 1013.5 0.0
21/05:30pm 12.0 8.8 5.0 62 3.2 NW 11 13 6 7 1012.9 1013.2 0.0
21/05:00pm 13.5 8.7 4.4 54 4.2 WNW 19 24 10 13 1012.6 1012.9 0.0
21/04:30pm 14.1 9.6 4.4 52 4.5 WNW 17 20 9 11 1012.5 1012.8 0.0
21/04:00pm 14.2 9.0 3.7 49 4.8 NW 20 28 11 15 1012.1 1012.3 0.0
21/03:30pm 14.3 8.3 3.5 48 4.9 NW 24 33 13 18 1012.1 1012.3 0.0
21/03:00pm 14.5 8.5 3.6 48 5.0 NW 24 35 13 19 1012.0 1012.2 0.0
21/02:30pm 14.5 9.6 5.0 53 4.5 WNW 20 32 11 17 1011.8 1012.0 0.0
21/02:00pm 14.4 9.1 5.0 53 4.4 WNW 22 30 12 16 1011.9 1012.1 0.0
21/01:30pm 13.4 7.6 4.6 55 4.1 WNW 24 33 13 18 1012.2 1012.4 0.0
21/01:00pm 12.9 7.6 4.8 58 3.8 WNW 22 30 12 16 1012.4 1012.7 0.0
21/12:30pm 13.4 8.1 5.1 57 3.9 W 22 32 12 17 1012.5 1012.8 0.0
21/12:00pm 13.3 7.7 5.5 59 3.7 W 24 30 13 16 1012.8 1013.1 0.0
21/11:30am 13.4 8.4 6.5 63 3.3 WNW 22 30 12 16 1013.0 1013.3 0.0
21/11:00am 12.8 7.7 5.9 63 3.3 W 22 26 12 14 1013.0 1013.3 0.0
21/10:30am 12.4 8.0 6.5 67 2.8 W 19 26 10 14 1013.0 1013.3 0.0
21/10:00am 11.9 7.3 6.6 70 2.5 W 20 26 11 14 1012.9 1013.2 0.0
21/09:30am 11.3 4.8 6.6 73 2.2 W 30 37 16 20 1012.2 1012.4 0.0
21/09:00am 9.8 5.9 6.9 82 1.4 W 17 24 9 13 1011.9 1012.1 0.0
21/08:30am 8.6 5.4 6.7 88 0.9 W 13 17 7 9 1011.5 1011.7 0.0
21/08:00am 7.5 4.8 5.6 88 0.9 WNW 9 13 5 7 1011.2 1011.4 0.0
21/07:30am 7.6 4.5 5.7 88 0.9 WNW 11 15 6 8 1010.8 1011.0 0.0
21/07:00am 8.0 5.0 6.0 87 0.9 WNW 11 13 6 7 1010.3 1010.5 0.0
21/06:30am 8.7 6.1 6.2 84 1.2 WNW 9 13 5 7 1010.0 1010.2 0.0
21/06:00am 10.1 5.7 6.6 79 1.7 WNW 19 22 10 12 1009.7 1009.9 0.0
21/05:30am 10.8 7.3 5.6 70 2.4 NW 13 19 7 10 1009.2 1009.4 0.0
21/05:00am 11.7 7.0 5.1 64 3.1 NW 19 28 10 15 1009.0 1009.2 0.0
21/04:30am 12.2 7.3 4.9 61 3.4 NW 20 28 11 15 1008.7 1008.9 0.0
21/04:00am 11.9 6.8 4.2 59 3.5 NW 20 28 11 15 1008.2 1008.4 0.0
21/03:30am 11.0 5.8 2.3 55 3.8 NNW 19 22 10 12 1008.2 1008.4 0.0
21/03:00am 11.5 5.2 1.5 50 4.3 NNW 24 32 13 17 1007.9 1008.1 0.0
21/02:30am 11.9 5.5 1.0 47 4.6 NNW 24 35 13 19 1007.6 1007.8 0.0
21/02:00am 12.1 6.1 1.1 47 4.7 NNW 22 32 12 17 1007.5 1007.7 0.0
21/01:30am 11.6 5.3 1.3 49 4.4 N 24 35 13 19 1007.5 1007.7 0.0
21/01:00am 11.7 6.1 1.4 49 4.4 N 20 33 11 18 1007.5 1007.7 0.0
21/12:30am 10.5 6.0 2.1 56 3.6 N 15 24 8 13 1007.7 1007.9 0.0
21/12:00am 10.2 5.7 2.1 57 3.5 NNE 15 24 8 13 1007.8 1008.0 0.0
 
Date/Time
EST
Temp
°C
App
Temp
°C
Dew
Point
°C
Rel
Hum
%
Delta-T
°C
Wind Press
QNH
hPa
Press
MSL
hPa
Rain since
9am
mm
Dir  Spd
km/h
Gust
km/h
Spd
kts
Gust
kts
20/11:30pm 9.9 5.8 2.3 59 3.2 NNE 13 20 7 11 1007.9 1008.1 0.0
20/11:00pm 9.9 5.4 2.3 59 3.3 NNE 15 22 8 12 1008.1 1008.3 0.0
20/10:30pm 10.7 5.8 2.3 56 3.6 NNE 17 32 9 17 1007.8 1008.0 0.0
20/10:00pm 10.7 5.9 2.5 57 3.6 NNE 17 28 9 15 1008.2 1008.4 0.0
20/09:30pm 10.7 5.9 2.8 58 3.4 NNE 17 26 9 14 1008.8 1009.0 0.0
20/09:00pm 11.0 6.2 2.6 56 3.7 NNE 17 28 9 15 1008.7 1008.9 0.0
20/08:30pm 11.3 6.8 2.3 54 3.9 NNE 15 20 8 11 1009.0 1009.2 0.0
20/08:00pm 11.1 7.0 2.2 54 3.8 NNE 13 24 7 13 1009.2 1009.4 0.0
20/07:30pm 11.4 7.2 1.9 52 4.1 NNE 13 20 7 11 1009.5 1009.7 0.0
20/07:00pm 11.3 7.6 2.3 54 3.9 NNE 11 15 6 8 1009.7 1009.9 0.0
20/06:30pm 11.8 7.7 2.3 52 4.1 NNE 13 17 7 9 1009.8 1010.0 0.0
20/06:00pm 12.6 8.5 2.5 50 4.4 N 13 20 7 11 1010.2 1010.4 0.0
20/05:30pm 13.7 9.7 2.9 48 4.8 NNE 13 22 7 12 1010.1 1010.3 0.0
20/05:00pm 15.2 11.3 3.4 45 5.4 NNE 13 20 7 11 1010.3 1010.5 0.0
20/04:30pm 16.2 12.2 2.9 41 6.1 N 13 20 7 11 1010.7 1010.9 0.0
20/04:00pm 16.8 12.4 2.8 39 6.4 N 15 30 8 16 1011.0 1011.2 0.0
20/03:30pm 17.1 11.9 2.7 38 6.6 N 19 32 10 17 1011.3 1011.5 0.0
20/03:00pm 17.3 12.1 2.5 37 6.8 N 19 33 10 18 1011.5 1011.7 0.0
20/02:30pm 17.0 11.9 3.3 40 6.4 N 19 32 10 17 1011.8 1012.0 0.0
20/02:00pm 16.8 11.7 4.2 43 6.0 N 20 32 11 17 1012.5 1012.8 0.0
20/01:30pm 16.6 11.7 4.0 43 5.9 N 19 30 10 16 1013.0 1013.3 0.0
20/01:00pm 16.0 10.4 3.4 43 5.8 N 22 39 12 21 1013.6 1013.8 0.0
20/12:30pm 15.4 10.6 4.5 48 5.1 N 19 32 10 17 1014.3 1014.5 0.0
20/12:00pm 14.9 10.9 5.1 52 4.6 N 15 24 8 13 1015.3 1015.5 0.0
20/11:30am 13.7 9.9 5.8 59 3.8 N 15 26 8 14 1016.0 1016.2 0.0
20/11:00am 12.4 8.1 5.3 62 3.3 N 17 26 9 14 1016.4 1016.6 0.0
20/10:30am 11.4 7.0 4.8 64 3.0 N 17 28 9 15 1016.8 1017.0 0.0
20/10:00am 10.2 6.5 4.4 67 2.6 N 13 24 7 13 1017.1 1017.3 0.0
20/09:30am 8.6 5.2 4.2 74 1.9 N 11 19 6 10 1017.5 1017.7 0.0
20/09:00am 7.5 3.2 3.4 75 1.8 N 15 22 8 12 1017.6 1017.8 0.2
20/08:30am 7.1 2.4 3.0 75 1.7 N 17 26 9 14 1017.5 1017.7 0.2
20/08:00am 5.8 1.8 3.0 82 1.2 N 13 22 7 12 1017.3 1017.5 0.2
20/07:30am 5.7 2.1 2.9 82 1.2 N 11 17 6 9 1017.4 1017.6 0.2
20/07:00am 6.4 2.1 3.2 80 1.3 NNE 15 24 8 13 1017.4 1017.6 0.2
20/06:30am 6.1 1.9 3.6 84 1.1 NNE 15 24 8 13 1017.3 1017.5 0.2
20/06:00am 5.9 2.4 3.6 85 1.0 NNE 11 20 6 11 1017.3 1017.5 0.2
20/05:30am 6.1 2.2 3.4 83 1.1 NNE 13 22 7 12 1017.2 1017.4 0.2
20/05:00am 6.8 3.0 3.8 81 1.3 N 13 20 7 11 1017.4 1017.6 0.2
20/04:30am 7.0 3.2 4.0 81 1.3 N 13 20 7 11 1017.5 1017.7 0.2
20/04:00am 7.5 3.4 4.3 80 1.4 N 15 28 8 15 1017.7 1017.9 0.2
20/03:30am 7.5 3.4 4.6 82 1.3 NNE 15 20 8 11 1018.0 1018.2 0.2
20/03:00am 7.3 3.6 4.6 83 1.2 NNE 13 20 7 11 1018.3 1018.5 0.2
20/02:30am 7.5 4.3 5.0 84 1.1 NNE 11 17 6 9 1018.6 1018.9 0.0
20/02:00am 8.1 4.5 5.2 82 1.3 NNE 13 19 7 10 1018.6 1018.9 0.0
20/01:30am 8.6 4.9 6.1 84 1.2 N 15 20 8 11 1018.6 1018.9 0.0
20/01:00am 8.5 5.7 7.1 91 0.7 N 11 22 6 12 1018.9 1019.2 0.0
20/12:30am 8.4 5.5 8.0 97 0.2 NNE 13 17 7 9 1019.3 1019.6 0.0
20/12:00am 8.1 5.5 7.8 98 0.1 NNE 11 19 6 10 1019.5 1019.8 0.0
 
Date/Time
EST
Temp
°C
App
Temp
°C
Dew
Point
°C
Rel
Hum
%
Delta-T
°C
Wind Press
QNH
hPa
Press
MSL
hPa
Rain since
9am
mm
Dir  Spd
km/h
Gust
km/h
Spd
kts
Gust
kts
19/11:30pm 7.9 6.0 7.6 98 0.1 NNE 7 15 4 8 1019.8 1020.1 0.0
19/11:00pm 8.2 6.0 7.9 98 0.1 NE 9 13 5 7 1020.0 1020.3 0.0
19/10:30pm 8.3 6.1 7.9 97 0.2 NE 9 13 5 7 1020.2 1020.5 0.0
19/10:00pm 8.5 6.4 8.1 97 0.2 NE 9 15 5 8 1020.1 1020.4 0.0
19/09:30pm 8.6 5.0 8.2 97 0.2 NE 17 20 9 11 1020.3 1020.6 0.0
19/09:00pm 8.9 5.3 8.3 96 0.3 ENE 17 20 9 11 1020.3 1020.6 0.0
19/08:30pm 9.2 5.7 8.6 96 0.3 ENE 17 20 9 11 1020.3 1020.6 0.0
19/08:00pm 9.5 6.0 8.7 95 0.4 ENE 17 20 9 11 1020.3 1020.6 0.0
19/07:30pm 9.6 6.1 8.7 94 0.4 ENE 17 20 9 11 1020.0 1020.3 0.0
19/07:00pm 9.5 6.7 8.4 93 0.5 ENE 13 17 7 9 1020.0 1020.3 0.0
19/06:30pm 9.6 6.8 8.4 92 0.6 ENE 13 19 7 10 1019.8 1020.1 0.0
19/06:00pm 10.0 7.9 8.4 90 0.8 ENE 9 13 5 7 1019.9 1020.2 0.0
19/05:30pm 10.9 8.5 8.8 87 1.0 ENE 11 15 6 8 1019.7 1020.0 0.0
19/05:00pm 11.6 9.7 9.2 85 1.2 ENE 9 13 5 7 1019.7 1020.0 0.0
19/04:30pm 12.6 11.2 9.4 81 1.6 NE 7 11 4 6 1019.8 1020.1 0.0
19/04:00pm 12.2 10.7 9.2 82 1.5 NE 7 11 4 6 1019.7 1020.0 0.0
19/03:30pm 11.8 10.3 9.2 84 1.3 NE 7 11 4 6 1019.9 1020.2 0.0
19/03:00pm 11.5 11.0 9.2 86 1.2 N 2 6 1 3 1019.8 1020.1 0.0
19/02:30pm 10.8 9.3 9.1 89 0.9 NW 7 13 4 7 1020.1 1020.4 0.0
19/02:00pm 10.3 8.8 8.4 88 0.9 NW 6 11 3 6 1020.4 1020.7 0.0
19/01:30pm 10.3 9.6 8.6 89 0.8 NNW 2 7 1 4 1020.5 1020.8 0.0
19/01:00pm 10.1 8.1 8.7 91 0.7 NNW 9 13 5 7 1021.0 1021.2 0.0
19/12:30pm 10.0 8.0 8.8 92 0.6 NNW 9 15 5 8 1021.4 1021.6 0.0
19/12:00pm 9.9 8.0 9.0 94 0.4 NNW 9 13 5 7 1021.9 1022.1 0.0
19/11:30am 10.0 8.8 9.4 96 0.3 N 6 11 3 6 1022.2 1022.4 0.0
19/11:00am 9.9 8.1 9.6 98 0.2 NNE 9 13 5 7 1022.3 1022.5 0.0
19/10:30am 9.6 8.1 9.3 98 0.1 NNW 7 9 4 5 1022.3 1022.5 0.0
19/10:00am 9.0 7.4 8.7 98 0.1 NNW 7 9 4 5 1022.1 1022.3 0.0
19/09:30am 9.0 7.4 8.7 98 0.1 NNW 7 9 4 5 1021.8 1022.0 0.0
19/09:00am 8.8 7.3 8.5 98 0.1 N 6 7 3 4 1021.5 1021.7 0.0
19/08:30am 8.7 7.2 8.4 98 0.1 N 6 7 3 4 1021.2 1021.4 0.0
19/08:00am 8.3 6.7 8.0 98 0.1 NNW 6 9 3 5 1020.7 1020.9 0.0
19/07:30am 8.0 6.1 7.7 98 0.1 NW 7 9 4 5 1020.4 1020.7 0.0
19/07:00am 8.8 7.1 8.5 98 0.1 WSW 7 9 4 5 1020.2 1020.5 0.0
19/06:30am 8.9 6.9 8.5 97 0.2 W 9 11 5 6 1020.0 1020.3 0.0
19/06:00am 8.9 6.5 8.5 97 0.2 W 11 13 6 7 1019.6 1019.9 0.0
19/05:30am 9.0 6.2 8.4 96 0.3 WNW 13 17 7 9 1019.4 1019.7 0.0
19/05:00am 9.1 7.0 8.3 95 0.4 W 9 11 5 6 1019.4 1019.7 0.0
19/04:30am 9.3 7.3 8.5 95 0.4 WNW 9 11 5 6 1019.3 1019.6 0.0
19/04:00am 9.3 7.2 8.4 94 0.4 WNW 9 15 5 8 1019.4 1019.7 0.0
19/03:30am 9.3 6.0 8.2 93 0.5 W 15 22 8 12 1019.5 1019.8 0.0
19/03:00am 9.3 6.8 8.1 92 0.6 W 11 17 6 9 1019.1 1019.4 0.0
19/02:30am 9.4 6.1 8.2 92 0.6 WSW 15 20 8 11 1019.2 1019.5 0.0
19/02:00am 9.4 5.3 8.0 91 0.7 W 19 24 10 13 1018.8 1019.1 0.0
19/01:30am 9.1 5.0 7.9 92 0.6 WNW 19 28 10 15 1018.5 1018.8 0.0
19/01:00am 9.2 5.0 7.5 89 0.8 NW 19 26 10 14 1018.5 1018.8 0.0
19/12:30am 9.1 4.8 6.9 86 1.0 NW 19 24 10 13 1018.4 1018.7 0.0
19/12:00am 9.0 4.5 7.0 87 0.9 NW 20 26 11 14 1018.4 1018.7 0.0
 
Date/Time
EST
Temp
°C
App
Temp
°C
Dew
Point
°C
Rel
Hum
%
Delta-T
°C
Wind Press
QNH
hPa
Press
MSL
hPa
Rain since
9am
mm
Dir  Spd
km/h
Gust
km/h
Spd
kts
Gust
kts
18/11:30pm 8.7 4.7 6.8 88 0.9 NNW 17 22 9 12 1018.2 1018.4 0.0
18/11:00pm 8.9 4.3 6.7 86 1.0 NW 20 24 11 13 1018.2 1018.4 0.0

Other formats

Comma delimited format used in spreadsheet applications
http://www.bom.gov.au/fwo/IDV60801/IDV60801.94827.axf

JavaScript Object Notation format (JSON) in row-major order
http://www.bom.gov.au/fwo/IDV60801/IDV60801.94827.json

Data quality

Most of these data are generated automatically and are frequently updated. Quality checks on data are not normally performed. It is possible for incorrect values to appear. Refer to information at About Latest Weather Observations and please check the disclaimer before using these data.